Russellton, PA (15076)

6:27 AM EST on March 06, 2015 (GMT -0500)
Dorseyville Middle School | Change Station
CLOSE
Current Station
Personal Weather Station
Location: Pittsburgh, PA
Elevation: 1021 ft
Nearby Weather Stations

Elev 1021 ft 40.58 °N, 79.88 °W | Updated 7 seconds ago

Partly Cloudy
Partly Cloudy
-5.8 °F
Feels Like -6 °F
N
0.0
Wind Variable Wind from WSW
Gusts 0.0 mph

Today
High -- | Low -- °F
--% Chance of Precip.
Yesterday
High -- | Low -- °F
Precip. -- in
6:45 AM 6:16 PM
Full, 100% visible
Pressure 30.50 in
Visibility 10.0 miles
Clouds Clear
Windchill -6 °F
Dew Point -9 °F
Humidity 86%
Rainfall in
Snow Depth Not available.
UV 0 out of 12
Pollen .60 out of 12
Air Quality Not available.
Flu Activity Not available.
METAR KBTP 061115Z AUTO 00000KT 10SM CLR M21/M23 A3050 RMK AO1

More Conditions Fewer Conditions

Pressure 30.50 in
Visibility 10.0 miles
Clouds Clear
Windchill -6 °F
Dew Point -9 °F
Humidity 86%
Rainfall in
Snow Depth Not available.
UV 0 out of 12
Pollen .60 out of 12
Air Quality Not available.
Flu Activity Not available.
METAR KBTP 061115Z AUTO 00000KT 10SM CLR M21/M23 A3050 RMK AO1

More Conditions Fewer Conditions

10-Day Weather Forecast

Almanac

Astronomy

Mar. 06, 2015 Rise Set
Actual Time
Civil Twilight
Nautical Twilight
Astronomical Twilight
Moon
Length of Visible Light
Length of Day
Tomorrow will be .
, % of the Moon is Illuminated

Today's Extremes

State Highs State Lows

Community

WunderPhotos

Upload Photos

1,803,225 photos uploaded!

WunderBlogs® & News

Nearby

Air Quality

  Air Quality AQ Index Pollutant
Not available.

Snow Depth

Station Depth Elevation

Earthquake Activity

City Distance Mag. Time & Date
Minimum magnitude displayed is 2.5.

Coastal Water Temperatures

Place Temperature

Nearby Weather Stations

Flood Advisory
Statement as of 9:23 PM EST on March 05, 2015

The Flood Advisory continues for
the Ohio River at Pittsburgh.
* Until Friday morning.
* At 07pm Thursday the stage was 20.9 feet.
* Flood stage is 25.0 feet.
* Forecast... the river will continue to fall overnight.
* Impact... at 21.0 feet, sewers begin backing up in Pittsburgh.


Lat... Lon 4043 7999 4045 8005 4047 8003 4045 8001
      4046 7999 4045 7998